Time;durP1;ratioP1;P1;durP2;ratioP2;P2;SDS_P1;SDS_P2;PMS_P1;PMS_P2;Temp;Humidity;BMP_temperature;BMP_pressure;BME280_temperature;BME280_humidity;BME280_pressure;Samples;Min_cycle;Max_cycle;Signal;HPM_P1;HPM_P2
2022/04/07 00:00:23;;;;;;;29.52;6.60;;;9.90;99.90;;;;;;5015314;28;20056;-70
2022/04/07 00:02:48;;;;;;;40.67;7.72;;;9.90;99.90;;;;;;5016171;28;20041;-69
2022/04/07 00:05:14;;;;;;;37.95;5.82;;;9.90;99.90;;;;;;5015086;28;20112;-69
2022/04/07 00:07:39;;;;;;;34.42;6.10;;;9.90;99.90;;;;;;5015407;28;20053;-69
2022/04/07 00:10:06;;;;;;;32.63;6.28;;;9.90;99.90;;;;;;5015673;28;20060;-69
2022/04/07 00:12:33;;;;;;;40.25;8.18;;;9.90;99.90;;;;;;5015835;28;20032;-69
2022/04/07 00:15:00;;;;;;;28.95;5.57;;;9.90;99.90;;;;;;5014748;28;20050;-70
2022/04/07 00:17:29;;;;;;;30.98;4.90;;;9.90;99.90;;;;;;5015196;28;20034;-70
2022/04/07 00:19:55;;;;;;;25.95;4.78;;;9.90;99.90;;;;;;5015121;28;20056;-70
2022/04/07 00:22:20;;;;;;;25.40;5.07;;;10.00;99.90;;;;;;5015848;28;20436;-70
2022/04/07 00:24:46;;;;;;;28.40;4.28;;;9.90;99.90;;;;;;5015397;28;20565;-70
2022/04/07 00:27:12;;;;;;;29.70;5.35;;;9.90;99.90;;;;;;5015487;28;20053;-71
2022/04/07 00:29:37;;;;;;;28.77;4.65;;;9.90;99.90;;;;;;5014852;28;20040;-71
2022/04/07 00:32:05;;;;;;;33.40;5.38;;;9.90;99.90;;;;;;5015587;28;20057;-71
2022/04/07 00:34:31;;;;;;;35.47;6.13;;;10.00;99.90;;;;;;5014734;28;20112;-71
2022/04/07 00:36:57;;;;;;;28.48;5.60;;;10.00;99.90;;;;;;5015044;28;20547;-71
2022/04/07 00:39:23;;;;;;;28.75;4.10;;;10.00;99.90;;;;;;5014882;28;20053;-71
2022/04/07 00:41:49;;;;;;;28.42;5.22;;;10.00;99.90;;;;;;5014742;28;20228;-70
2022/04/07 00:44:14;;;;;;;32.83;4.50;;;10.00;99.90;;;;;;5014386;28;20030;-70
2022/04/07 00:46:41;;;;;;;28.80;4.45;;;10.00;99.90;;;;;;5014984;28;20454;-71
2022/04/07 00:49:07;;;;;;;33.50;4.28;;;10.00;99.90;;;;;;5015465;28;20443;-71
2022/04/07 00:51:37;;;;;;;37.95;6.00;;;10.00;99.90;;;;;;5015164;28;20105;-70
2022/04/07 00:54:03;;;;;;;35.33;4.70;;;10.10;99.90;;;;;;5014084;28;20026;-71
2022/04/07 00:56:30;;;;;;;35.75;5.50;;;10.00;99.90;;;;;;5014421;28;20022;-70
2022/04/07 00:58:55;;;;;;;33.83;5.40;;;10.00;99.90;;;;;;5014718;28;20046;-70
2022/04/07 01:01:24;;;;;;;25.02;4.97;;;10.00;99.90;;;;;;5014298;28;20489;-70
2022/04/07 01:03:51;;;;;;;31.27;5.88;;;10.10;99.90;;;;;;5014786;28;20053;-70
2022/04/07 01:06:19;;;;;;;34.72;5.40;;;10.10;99.90;;;;;;5014598;28;20037;-70
2022/04/07 01:08:44;;;;;;;27.00;5.60;;;10.10;99.90;;;;;;5014477;28;20079;-70
2022/04/07 01:11:10;;;;;;;39.70;5.68;;;10.00;99.90;;;;;;5013830;28;20037;-70
2022/04/07 01:14:02;;;;;;;38.97;6.68;;;10.10;99.90;;;;;;5013905;28;20026;-70
2022/04/07 01:16:29;;;;;;;32.42;4.13;;;10.10;99.90;;;;;;5012640;28;20045;-70
2022/04/07 01:18:56;;;;;;;21.85;4.18;;;10.10;99.90;;;;;;5014516;28;20257;-70
2022/04/07 01:21:23;;;;;;;30.77;4.90;;;10.00;99.90;;;;;;5014294;28;20366;-71
2022/04/07 01:24:05;;;;;;;31.15;5.45;;;10.00;99.90;;;;;;5014303;28;20548;-69
2022/04/07 01:26:33;;;;;;;30.52;5.35;;;10.10;99.90;;;;;;5013704;28;20050;-69
2022/04/07 01:29:00;;;;;;;32.22;5.15;;;10.10;99.90;;;;;;5013910;28;20120;-70
2022/04/07 01:31:26;;;;;;;38.25;5.78;;;10.10;99.90;;;;;;5012679;28;20116;-70
2022/04/07 01:33:56;;;;;;;28.98;5.47;;;10.10;99.90;;;;;;5014217;28;20168;-69
2022/04/07 01:36:22;;;;;;;34.40;6.60;;;10.20;99.90;;;;;;5013950;28;20513;-69
2022/04/07 01:38:48;;;;;;;37.78;10.18;;;10.20;99.90;;;;;;5013470;28;20042;-69
2022/04/07 01:41:14;;;;;;;47.10;8.13;;;10.20;99.90;;;;;;5013956;28;20022;-69
2022/04/07 01:43:41;;;;;;;34.58;6.03;;;10.20;99.90;;;;;;5011912;28;20037;-70
2022/04/07 01:46:10;;;;;;;26.23;5.18;;;10.20;99.90;;;;;;5013256;28;20463;-69
2022/04/07 01:48:36;;;;;;;29.05;6.15;;;10.20;99.90;;;;;;5013569;28;20486;-69
2022/04/07 01:51:02;;;;;;;34.47;7.38;;;10.20;99.90;;;;;;5013476;28;20021;-69
2022/04/07 01:53:29;;;;;;;26.65;5.70;;;10.20;99.90;;;;;;5013244;28;20029;-69
2022/04/07 01:55:55;;;;;;;28.25;6.40;;;10.20;99.90;;;;;;5013238;28;20489;-69
2022/04/07 01:58:22;;;;;;;26.67;5.72;;;10.20;99.90;;;;;;5013047;28;20057;-69
2022/04/07 02:00:48;;;;;;;33.42;5.53;;;10.20;99.90;;;;;;5014013;28;20140;-70
2022/04/07 02:03:13;;;;;;;30.48;5.78;;;10.10;99.90;;;;;;5012273;28;20433;-69
2022/04/07 02:05:39;;;;;;;28.35;5.43;;;10.10;99.90;;;;;;5012739;28;20030;-70
2022/04/07 02:08:05;;;;;;;33.88;5.55;;;10.10;99.90;;;;;;5013525;28;20030;-69
2022/04/07 02:10:32;;;;;;;38.83;6.28;;;10.10;99.90;;;;;;5012738;28;20029;-69
2022/04/07 02:12:58;;;;;;;31.73;6.15;;;10.00;99.90;;;;;;5013337;28;20026;-69
2022/04/07 02:15:26;;;;;;;38.55;6.35;;;10.00;99.90;;;;;;5012862;28;20033;-70
2022/04/07 02:17:52;;;;;;;48.90;7.50;;;10.00;99.90;;;;;;5011788;28;20386;-70
2022/04/07 02:20:19;;;;;;;43.10;6.60;;;10.00;99.90;;;;;;5011656;28;20041;-70
2022/04/07 02:22:44;;;;;;;39.58;7.15;;;10.00;99.90;;;;;;5013666;28;20076;-70
2022/04/07 02:25:10;;;;;;;41.05;7.03;;;10.00;99.90;;;;;;5013013;28;20430;-70
2022/04/07 02:27:37;;;;;;;49.50;6.93;;;10.10;99.90;;;;;;5013104;28;20050;-70
2022/04/07 02:30:09;;;;;;;37.60;8.32;;;10.00;99.90;;;;;;5013025;28;20030;-70
2022/04/07 02:32:35;;;;;;;;;;;10.10;99.90;;;;;;5013419;28;20026;-70
2022/04/07 02:35:01;;;;;;;40.90;6.72;;;10.10;99.90;;;;;;5012574;28;20258;-69
2022/04/07 02:37:27;;;;;;;45.55;6.95;;;10.00;99.90;;;;;;5012737;28;20037;-69
2022/04/07 02:39:54;;;;;;;38.78;6.45;;;10.00;99.90;;;;;;5012799;28;20041;-69
2022/04/07 02:42:20;;;;;;;44.78;7.80;;;10.00;99.90;;;;;;5013068;28;20572;-70
2022/04/07 02:44:45;;;;;;;52.60;7.95;;;10.10;99.90;;;;;;5010705;28;20065;-69
2022/04/07 02:47:11;;;;;;;43.05;6.38;;;10.10;99.90;;;;;;5008021;28;20497;-69
2022/04/07 02:49:39;;;;;;;44.67;6.63;;;10.10;99.90;;;;;;5011530;28;20373;-70
2022/04/07 02:52:07;;;;;;;36.75;7.95;;;10.10;99.90;;;;;;5013383;28;20030;-69
2022/04/07 02:54:33;;;;;;;44.00;7.40;;;10.10;99.90;;;;;;5012510;28;20032;-70
2022/04/07 02:56:58;;;;;;;26.70;5.57;;;10.20;99.90;;;;;;5012990;28;20026;-69
2022/04/07 02:59:24;;;;;;;37.55;6.43;;;10.10;99.90;;;;;;5012715;28;20050;-70
2022/04/07 03:01:51;;;;;;;41.47;6.35;;;10.20;99.90;;;;;;5010974;28;20069;-70
2022/04/07 03:04:18;;;;;;;45.03;9.32;;;10.20;99.90;;;;;;5012516;28;20026;-69
2022/04/07 03:06:43;;;;;;;43.22;6.10;;;10.20;99.90;;;;;;5012612;28;20049;-69
2022/04/07 03:09:09;;;;;;;38.75;7.30;;;10.20;99.90;;;;;;5012653;28;20038;-70
2022/04/07 03:11:34;;;;;;;38.58;6.82;;;10.20;99.90;;;;;;5011195;28;20034;-69
2022/04/07 03:14:00;;;;;;;47.10;6.78;;;10.20;99.90;;;;;;5012588;28;20137;-70
2022/04/07 03:16:25;;;;;;;32.47;5.82;;;10.30;99.90;;;;;;5012117;28;20046;-70
2022/04/07 03:18:51;;;;;;;30.13;8.27;;;10.30;99.90;;;;;;5011864;28;20485;-69
2022/04/07 03:21:17;;;;;;;41.08;6.90;;;10.30;99.90;;;;;;5012096;28;20026;-70
2022/04/07 03:23:42;;;;;;;40.08;5.97;;;10.20;99.90;;;;;;5012687;28;20034;-71
2022/04/07 03:26:08;;;;;;;34.38;6.93;;;10.20;99.90;;;;;;5011721;28;20076;-70
2022/04/07 03:28:33;;;;;;;34.03;6.45;;;10.20;99.90;;;;;;5012289;28;20030;-70
2022/04/07 03:30:59;;;;;;;40.70;8.18;;;10.20;99.90;;;;;;5012452;28;20732;-70
2022/04/07 03:33:24;;;;;;;38.58;5.68;;;10.10;99.90;;;;;;5012241;28;20038;-70
2022/04/07 03:35:50;;;;;;;38.95;6.45;;;10.00;99.90;;;;;;5011914;28;20041;-70
2022/04/07 03:38:16;;;;;;;39.50;7.15;;;10.00;99.90;;;;;;5011046;28;20034;-70
2022/04/07 03:40:42;;;;;;;40.95;5.93;;;10.00;99.90;;;;;;5012368;28;20129;-70
2022/04/07 03:43:07;;;;;;;36.30;6.03;;;10.00;99.90;;;;;;5012498;28;20130;-70
2022/04/07 03:45:33;;;;;;;36.65;5.95;;;10.00;99.90;;;;;;5011970;28;20026;-70
2022/04/07 03:47:58;;;;;;;30.73;5.50;;;10.00;99.90;;;;;;5012130;28;20136;-70
2022/04/07 03:50:24;;;;;;;34.72;6.28;;;10.00;99.90;;;;;;5011851;28;20037;-70
2022/04/07 03:52:50;;;;;;;25.17;4.80;;;10.00;99.90;;;;;;5007901;28;20034;-70
2022/04/07 03:55:15;;;;;;;26.27;4.78;;;9.90;99.90;;;;;;5004456;28;20042;-70
2022/04/07 03:57:41;;;;;;;22.55;5.22;;;9.80;99.90;;;;;;5012235;28;20029;-70
2022/04/07 04:00:07;;;;;;;27.17;5.50;;;9.80;99.90;;;;;;5011574;28;20125;-70
2022/04/07 04:02:33;;;;;;;30.25;4.28;;;9.70;99.90;;;;;;5011689;28;20072;-70
2022/04/07 04:04:59;;;;;;;29.80;4.97;;;9.70;99.90;;;;;;5011970;28;20037;-70
2022/04/07 04:07:24;;;;;;;32.60;4.70;;;9.70;99.90;;;;;;4993042;28;20026;-69
2022/04/07 04:09:50;;;;;;;23.65;3.92;;;9.70;99.90;;;;;;5008666;28;20064;-70
2022/04/07 04:12:15;;;;;;;21.30;3.47;;;9.80;99.90;;;;;;5011359;28;20120;-70
2022/04/07 04:14:41;;;;;;;22.05;4.45;;;9.80;99.90;;;;;;5012181;28;20120;-70
2022/04/07 04:17:06;;;;;;;24.17;4.05;;;9.80;99.90;;;;;;5015389;28;20037;-70
2022/04/07 04:19:33;;;;;;;25.60;4.25;;;9.80;99.90;;;;;;5015316;28;20386;-70
2022/04/07 04:21:59;;;;;;;20.60;3.83;;;9.80;99.90;;;;;;5015786;28;20037;-69
2022/04/07 04:24:24;;;;;;;22.25;3.35;;;9.80;99.90;;;;;;5014987;28;20022;-70
2022/04/07 04:26:50;;;;;;;14.68;2.97;;;9.80;99.90;;;;;;5015296;28;20052;-70
2022/04/07 04:29:15;;;;;;;28.55;3.90;;;9.70;99.90;;;;;;5014003;28;20038;-70
2022/04/07 04:31:41;;;;;;;24.90;3.65;;;9.70;99.90;;;;;;5015010;28;20030;-70
2022/04/07 04:34:06;;;;;;;20.73;3.40;;;9.70;99.90;;;;;;5011999;28;20057;-71
2022/04/07 04:36:34;;;;;;;17.35;3.50;;;9.70;99.90;;;;;;5015771;28;20507;-70
2022/04/07 04:39:00;;;;;;;10.18;1.70;;;9.70;99.90;;;;;;5015076;28;20044;-71
2022/04/07 04:41:25;;;;;;;10.70;1.65;;;9.60;99.90;;;;;;5014620;28;20030;-71
2022/04/07 04:43:51;;;;;;;12.50;2.17;;;9.10;99.90;;;;;;5014988;28;20040;-71
2022/04/07 04:46:16;;;;;;;15.43;1.67;;;8.50;99.90;;;;;;5013690;28;20038;-70
2022/04/07 04:48:42;;;;;;;9.43;1.35;;;7.90;99.90;;;;;;5015074;28;20461;-72
2022/04/07 04:51:08;;;;;;;8.05;1.15;;;7.20;99.90;;;;;;5014936;28;20053;-73
2022/04/07 04:53:33;;;;;;;12.85;2.67;;;6.60;99.90;;;;;;5014999;28;20042;-73
2022/04/07 04:55:59;;;;;;;10.98;2.92;;;6.10;99.90;;;;;;5014977;28;20032;-72
2022/04/07 04:58:24;;;;;;;22.77;3.17;;;5.70;99.90;;;;;;5014894;28;20038;-71
2022/04/07 05:00:50;;;;;;;13.77;2.10;;;5.30;99.90;;;;;;5015081;28;20034;-71
2022/04/07 05:03:16;;;;;;;18.05;2.38;;;5.00;99.90;;;;;;5014415;28;20393;-72
2022/04/07 05:05:42;;;;;;;23.88;3.22;;;4.70;99.90;;;;;;5013442;28;20037;-71
2022/04/07 05:08:07;;;;;;;24.08;2.80;;;4.60;99.90;;;;;;5014712;28;20038;-71
2022/04/07 05:10:33;;;;;;;23.77;2.83;;;4.40;99.90;;;;;;5014262;28;20026;-71
2022/04/07 05:12:59;;;;;;;23.83;2.55;;;4.40;99.90;;;;;;5014802;28;20045;-72
2022/04/07 05:15:26;;;;;;;22.75;2.75;;;4.40;99.90;;;;;;5014771;28;20463;-71
2022/04/07 05:17:52;;;;;;;28.67;3.20;;;4.40;99.90;;;;;;5014567;28;20021;-71
2022/04/07 05:20:18;;;;;;;25.50;3.42;;;4.40;99.90;;;;;;5013001;28;20050;-71
2022/04/07 05:22:44;;;;;;;24.42;3.85;;;4.40;99.90;;;;;;5014701;28;20053;-71
2022/04/07 05:25:10;;;;;;;21.35;4.35;;;4.50;99.90;;;;;;5014313;28;20127;-71
2022/04/07 05:27:37;;;;;;;17.52;3.15;;;4.60;99.90;;;;;;5013608;28;20050;-71
2022/04/07 05:30:07;;;;;;;22.38;3.38;;;4.70;99.90;;;;;;5014194;28;20037;-71
2022/04/07 05:32:34;;;;;;;21.60;3.55;;;4.80;99.90;;;;;;5014200;28;20075;-71
2022/04/07 05:35:00;;;;;;;15.00;2.63;;;4.90;99.90;;;;;;5013952;28;20022;-71
2022/04/07 05:37:26;;;;;;;14.75;2.78;;;5.00;99.90;;;;;;5014347;28;20037;-71
2022/04/07 05:39:51;;;;;;;11.70;2.42;;;5.10;99.90;;;;;;5009528;28;20494;-72
2022/04/07 05:42:18;;;;;;;19.17;2.45;;;5.30;99.90;;;;;;5010855;28;20072;-72
2022/04/07 05:44:44;;;;;;;19.90;2.72;;;5.40;99.90;;;;;;5013503;28;20049;-72
2022/04/07 05:47:09;;;;;;;19.60;3.22;;;5.60;99.90;;;;;;5014737;28;20045;-71
2022/04/07 05:49:36;;;;;;;24.73;4.40;;;5.70;99.90;;;;;;5013902;28;20413;-71
2022/04/07 05:52:04;;;;;;;26.42;3.90;;;5.80;99.90;;;;;;5013927;28;20029;-71
2022/04/07 05:54:31;;;;;;;25.52;5.72;;;6.00;99.90;;;;;;5013932;28;20060;-71
2022/04/07 05:56:56;;;;;;;17.92;3.75;;;6.00;99.90;;;;;;5014058;28;20042;-71
2022/04/07 05:59:22;;;;;;;13.35;3.33;;;6.10;99.90;;;;;;5013746;28;20104;-71
2022/04/07 06:01:47;;;;;;;19.27;5.47;;;6.10;99.90;;;;;;5012397;28;20029;-71
2022/04/07 06:04:13;;;;;;;13.95;2.65;;;6.20;99.90;;;;;;5013331;28;20057;-71
2022/04/07 06:06:38;;;;;;;11.95;3.25;;;6.20;99.90;;;;;;5013772;28;20069;-71
2022/04/07 06:09:05;;;;;;;17.25;3.80;;;6.30;99.90;;;;;;5028870;28;20030;-71
2022/04/07 06:11:30;;;;;;;15.07;3.05;;;6.40;99.90;;;;;;5013820;28;20033;-71
2022/04/07 06:13:56;;;;;;;11.68;3.63;;;6.40;99.90;;;;;;5013743;28;20034;-71
2022/04/07 06:16:21;;;;;;;19.33;4.63;;;6.50;99.90;;;;;;5013702;28;20026;-71
2022/04/07 06:18:47;;;;;;;13.75;2.88;;;6.50;99.90;;;;;;5012247;28;20036;-70
2022/04/07 06:21:13;;;;;;;14.15;3.58;;;6.60;99.90;;;;;;5014173;28;20033;-70
2022/04/07 06:23:39;;;;;;;9.38;2.25;;;6.60;99.90;;;;;;5013719;28;20021;-70
2022/04/07 06:26:05;;;;;;;8.23;2.03;;;6.70;99.90;;;;;;5013611;28;20084;-70
2022/04/07 06:28:31;;;;;;;4.40;1.70;;;6.70;99.90;;;;;;5013798;28;20080;-70
2022/04/07 06:30:56;;;;;;;6.32;1.38;;;6.70;99.90;;;;;;5013763;28;20018;-71
2022/04/07 06:33:22;;;;;;;15.60;3.20;;;6.80;99.90;;;;;;5013256;28;20045;-69
2022/04/07 06:35:49;;;;;;;14.98;4.45;;;6.80;99.90;;;;;;5013288;28;20026;-71
2022/04/07 06:38:15;;;;;;;18.75;5.00;;;6.90;99.90;;;;;;5013018;28;20022;-70
2022/04/07 06:40:40;;;;;;;10.10;2.58;;;6.90;99.90;;;;;;5013248;28;20033;-70
2022/04/07 06:43:06;;;;;;;18.92;4.13;;;6.90;99.90;;;;;;5013297;28;20053;-69
2022/04/07 06:45:32;;;;;;;12.48;2.15;;;6.90;99.90;;;;;;5028437;28;20022;-70
2022/04/07 06:47:57;;;;;;;11.02;2.15;;;7.00;99.90;;;;;;5013038;28;20030;-69
2022/04/07 06:50:25;;;;;;;8.55;2.50;;;7.00;99.90;;;;;;5013431;28;20053;-70
2022/04/07 06:52:51;;;;;;;11.80;2.20;;;7.00;99.90;;;;;;5012673;28;20026;-70
2022/04/07 06:55:17;;;;;;;8.98;1.98;;;7.10;99.90;;;;;;5012894;28;20055;-70
2022/04/07 06:58:00;;;;;;;5.60;1.38;;;7.10;99.90;;;;;;5013442;28;20467;-70
2022/04/07 07:00:31;;;;;;;11.88;1.98;;;7.20;99.90;;;;;;5012573;28;20140;-70
2022/04/07 07:02:59;;;;;;;6.00;1.53;;;7.30;99.90;;;;;;5012442;28;20377;-70
2022/04/07 07:05:27;;;;;;;14.35;3.10;;;7.40;99.90;;;;;;5012829;28;20271;-70
2022/04/07 07:07:52;;;;;;;15.25;2.70;;;7.50;99.90;;;;;;5012225;28;20061;-69
2022/04/07 07:10:28;;;;;;;10.95;2.17;;;7.50;99.90;;;;;;5012913;28;20064;-69
2022/04/07 07:12:54;;;;;;;15.75;3.95;;;7.70;99.90;;;;;;5012246;28;20061;-70
2022/04/07 07:15:23;;;;;;;9.57;2.17;;;7.90;99.90;;;;;;5012178;28;20497;-69
2022/04/07 07:17:51;;;;;;;11.65;2.53;;;8.00;99.90;;;;;;5012681;28;20538;-69
2022/04/07 07:20:20;;;;;;;11.52;1.73;;;8.10;99.90;;;;;;5012868;28;20085;-70
2022/04/07 07:22:46;;;;;;;14.45;2.65;;;8.10;99.90;;;;;;5012266;28;20103;-69
2022/04/07 07:25:12;;;;;;;7.90;2.10;;;8.10;99.90;;;;;;5012907;28;20458;-69
2022/04/07 07:27:39;;;;;;;14.40;2.13;;;8.20;99.90;;;;;;5012797;28;20176;-69
2022/04/07 07:30:09;;;;;;;11.75;1.83;;;8.30;99.90;;;;;;5011504;28;20026;-69
2022/04/07 07:32:39;;;;;;;9.98;1.80;;;8.30;99.90;;;;;;5012039;28;20098;-69
2022/04/07 07:35:06;;;;;;;11.52;1.83;;;8.40;99.90;;;;;;5011734;28;20044;-69
2022/04/07 07:37:32;;;;;;;10.40;2.00;;;8.60;99.90;;;;;;5012479;28;20032;-69
2022/04/07 07:40:11;;;;;;;11.70;1.60;;;8.80;99.90;;;;;;5011985;28;20046;-69
2022/04/07 07:42:37;;;;;;;11.55;1.60;;;9.10;99.90;;;;;;5012250;28;20033;-69
2022/04/07 07:45:04;;;;;;;11.95;2.00;;;9.20;99.90;;;;;;5012131;28;20029;-69
2022/04/07 07:47:30;;;;;;;14.10;1.65;;;9.50;99.90;;;;;;5006876;28;20057;-69
2022/04/07 07:49:55;;;;;;;10.73;1.95;;;9.60;99.90;;;;;;5002191;28;20042;-69
2022/04/07 07:52:21;;;;;;;10.80;1.45;;;10.00;99.90;;;;;;5014876;28;20022;-69
2022/04/07 07:54:47;;;;;;;7.95;1.65;;;10.40;99.90;;;;;;5014730;28;20029;-69
2022/04/07 07:57:12;;;;;;;14.75;2.15;;;10.80;99.90;;;;;;5015374;28;20030;-69
2022/04/07 07:59:38;;;;;;;10.52;2.63;;;11.30;99.90;;;;;;5014746;28;20038;-69
2022/04/07 08:02:04;;;;;;;14.05;2.33;;;11.70;99.90;;;;;;5015550;28;20471;-71
2022/04/07 08:04:29;;;;;;;11.85;1.75;;;12.30;99.90;;;;;;5015935;28;20029;-71
2022/04/07 08:06:55;;;;;;;13.57;2.47;;;12.60;99.90;;;;;;5015464;28;20062;-69
2022/04/07 08:09:20;;;;;;;9.82;1.83;;;13.00;99.90;;;;;;5014745;28;20108;-70
2022/04/07 08:11:46;;;;;;;10.65;1.60;;;13.50;99.90;;;;;;5009844;28;20046;-70
2022/04/07 08:14:12;;;;;;;17.08;2.13;;;13.60;99.90;;;;;;5002875;28;20034;-70
2022/04/07 08:16:38;;;;;;;8.57;2.00;;;13.60;99.90;;;;;;5016154;28;20083;-70
2022/04/07 08:19:04;;;;;;;11.75;2.00;;;13.40;99.90;;;;;;5015256;28;20104;-70
2022/04/07 08:21:31;;;;;;;17.60;2.40;;;13.20;99.90;;;;;;5014395;28;20038;-69
2022/04/07 08:23:56;;;;;;;14.88;2.47;;;13.30;99.90;;;;;;5014989;28;20034;-70
2022/04/07 08:26:22;;;;;;;16.92;3.05;;;13.70;99.90;;;;;;5014855;28;20175;-70
2022/04/07 08:28:47;;;;;;;12.35;2.13;;;14.10;99.90;;;;;;5014798;28;20030;-69
2022/04/07 08:31:13;;;;;;;15.95;2.47;;;14.00;99.90;;;;;;5015126;28;20462;-70
2022/04/07 08:33:38;;;;;;;15.32;2.17;;;14.10;99.90;;;;;;5014160;28;20037;-70
2022/04/07 08:36:04;;;;;;;14.02;3.25;;;14.50;99.90;;;;;;5015265;28;20026;-70
2022/04/07 08:38:30;;;;;;;18.33;2.72;;;14.60;99.90;;;;;;5014977;28;20030;-70
2022/04/07 08:40:56;;;;;;;14.60;3.00;;;14.70;99.90;;;;;;5014904;28;20042;-69
2022/04/07 08:43:22;;;;;;;21.70;3.05;;;15.20;99.90;;;;;;5013813;28;20034;-69
2022/04/07 08:45:49;;;;;;;21.83;3.67;;;15.40;99.90;;;;;;5015502;28;20033;-69
2022/04/07 08:48:15;;;;;;;16.85;3.03;;;15.30;99.90;;;;;;5015549;28;20103;-70
2022/04/07 08:50:42;;;;;;;18.92;3.15;;;15.10;99.90;;;;;;5013721;28;20025;-69
2022/04/07 08:53:08;;;;;;;12.68;2.47;;;14.60;99.90;;;;;;4995705;28;20038;-71
2022/04/07 08:55:34;;;;;;;19.58;3.20;;;14.40;99.90;;;;;;4994529;28;20395;-69
2022/04/07 08:58:01;;;;;;;22.08;4.15;;;14.00;99.90;;;;;;4995799;28;20022;-69
2022/04/07 09:00:26;;;;;;;21.25;6.00;;;13.50;99.90;;;;;;5013114;28;20046;-69
2022/04/07 09:02:53;;;;;;;21.33;5.45;;;13.10;99.90;;;;;;5012487;28;20113;-69
2022/04/07 09:05:23;;;;;;;20.45;4.32;;;13.40;99.90;;;;;;5013577;28;20386;-69
2022/04/07 09:07:50;;;;;;;22.13;4.45;;;14.00;99.90;;;;;;5014999;28;20022;-69
2022/04/07 09:10:19;;;;;;;16.13;3.60;;;14.30;99.90;;;;;;5013046;28;20417;-69
2022/04/07 09:12:45;;;;;;;19.13;3.53;;;14.90;99.90;;;;;;5013450;28;20049;-70
2022/04/07 09:15:13;;;;;;;18.60;3.85;;;15.40;99.90;;;;;;5014148;28;20413;-69
2022/04/07 09:17:50;;;;;;;19.15;3.47;;;15.40;99.90;;;;;;5014981;28;20025;-69
2022/04/07 09:20:15;;;;;;;16.02;2.97;;;15.30;99.90;;;;;;5012656;28;20042;-69
2022/04/07 09:22:41;;;;;;;21.10;3.33;;;15.40;99.90;;;;;;5013367;28;20037;-70
2022/04/07 09:25:07;;;;;;;19.48;3.75;;;15.30;99.90;;;;;;5013405;28;20030;-69
2022/04/07 09:27:33;;;;;;;13.00;3.00;;;15.10;99.90;;;;;;5014156;28;20130;-69
2022/04/07 09:29:59;;;;;;;21.15;3.13;;;14.60;99.90;;;;;;5013001;28;20112;-69
2022/04/07 09:32:26;;;;;;;23.20;3.25;;;14.30;99.90;;;;;;5014066;28;20033;-69
2022/04/07 09:34:57;;;;;;;14.20;2.83;;;14.20;99.90;;;;;;5014192;28;20065;-69
2022/04/07 09:37:24;;;;;;;17.52;3.03;;;13.90;99.90;;;;;;5013813;28;20052;-69
2022/04/07 09:40:05;;;;;;;17.23;2.80;;;13.60;99.90;;;;;;5013938;28;20068;-69
2022/04/07 09:42:33;;;;;;;20.17;3.40;;;13.20;99.90;;;;;;5014049;28;20030;-69
2022/04/07 09:45:01;;;;;;;22.88;3.13;;;13.00;99.90;;;;;;5003983;28;20033;-69
2022/04/07 09:47:41;;;;;;;17.10;4.15;;;12.80;99.90;;;;;;5009292;28;20406;-69
2022/04/07 09:50:10;;;;;;;20.15;3.75;;;12.60;99.90;;;;;;5016628;28;20430;-69
2022/04/07 09:52:40;;;;;;;18.67;3.15;;;12.40;99.90;;;;;;5030444;28;20021;-69
2022/04/07 09:55:08;;;;;;;15.07;2.97;;;12.10;99.90;;;;;;5017944;28;20386;-69
2022/04/07 09:57:34;;;;;;;23.60;3.70;;;12.00;99.90;;;;;;5024529;28;20115;-69
2022/04/07 10:00:05;;;;;;;19.00;3.15;;;11.90;99.90;;;;;;5025356;28;20704;-69
2022/04/07 10:02:31;;;;;;;24.58;4.28;;;11.90;99.90;;;;;;5011910;28;20116;-69
2022/04/07 10:04:59;;;;;;;17.08;3.10;;;11.80;99.90;;;;;;5013784;28;20041;-69
2022/04/07 10:07:25;;;;;;;17.38;2.88;;;11.90;99.90;;;;;;5013255;28;20045;-68
2022/04/07 10:09:51;;;;;;;23.48;4.13;;;11.90;99.90;;;;;;5012658;28;20042;-70
2022/04/07 10:12:18;;;;;;;21.08;3.70;;;12.00;99.90;;;;;;5012950;28;20108;-70
2022/04/07 10:14:44;;;;;;;19.58;4.00;;;12.20;99.90;;;;;;5012963;28;20045;-69
2022/04/07 10:17:13;;;;;;;17.85;3.05;;;12.30;99.90;;;;;;5012675;28;20037;-70
2022/04/07 10:19:48;;;;;;;18.02;3.05;;;12.40;99.90;;;;;;5011655;28;20496;-70
2022/04/07 10:22:47;;;;;;;25.95;3.65;;;12.70;99.90;;;;;;5013025;28;20109;-70
2022/04/07 10:25:14;;;;;;;23.98;3.88;;;13.40;99.90;;;;;;5000256;28;20034;-69
2022/04/07 10:27:47;;;;;;;17.60;3.45;;;14.20;99.90;;;;;;5012189;28;20049;-69
2022/04/07 10:30:14;;;;;;;20.98;3.05;;;15.00;99.90;;;;;;5011692;28;20037;-70
2022/04/07 10:32:45;;;;;;;23.08;3.40;;;15.40;99.90;;;;;;5011648;28;20026;-70
2022/04/07 10:35:29;;;;;;;14.37;3.00;;;16.10;99.90;;;;;;5013153;28;20029;-70
2022/04/07 10:37:55;;;;;;;15.70;2.92;;;16.30;99.90;;;;;;5013398;28;20535;-70
2022/04/07 10:40:33;;;;;;;19.70;3.38;;;16.60;99.90;;;;;;5013154;28;20052;-69
2022/04/07 10:43:37;;;;;;;19.50;3.97;;;16.30;99.90;;;;;;5011938;28;20076;-70
2022/04/07 10:46:06;;;;;;;18.80;3.30;;;16.00;99.90;;;;;;5001732;28;20038;-72
2022/04/07 10:48:36;;;;;;;13.82;2.72;;;15.60;99.90;;;;;;5013184;28;20029;-74
2022/04/07 10:51:03;;;;;;;16.55;3.08;;;15.40;99.90;;;;;;5013307;28;20030;-69
2022/04/07 10:53:40;;;;;;;17.88;3.72;;;15.40;99.90;;;;;;5013306;28;20060;-72
2022/04/07 10:56:21;;;;;;;19.38;3.33;;;15.50;99.90;;;;;;5013123;28;20087;-70
2022/04/07 10:58:51;;;;;;;19.23;3.05;;;15.90;99.90;;;;;;5013162;28;20075;-70
2022/04/07 11:01:31;;;;;;;18.02;3.47;;;16.20;99.90;;;;;;5013144;28;20097;-74
2022/04/07 11:07:02;;;;;;;13.70;2.97;;;16.10;99.70;;;;;;5013187;28;20038;-72
2022/04/07 11:09:54;;;;;;;16.85;2.40;;;16.00;99.90;;;;;;5011663;28;20029;-71
2022/04/07 11:12:25;;;;;;;15.90;2.22;;;15.70;99.90;;;;;;5011197;28;20025;-70
2022/04/07 11:15:17;;;;;;;15.98;3.00;;;15.40;99.90;;;;;;5011981;28;20030;-70
2022/04/07 11:17:46;;;;;;;;;;;15.10;99.90;;;;;;5012030;28;20044;-70
2022/04/07 11:20:19;;;;;;;16.40;3.28;;;14.90;99.90;;;;;;5012773;28;20012;-74
2022/04/07 11:22:52;;;;;;;18.58;3.38;;;14.90;99.90;;;;;;5011454;28;20108;-74
2022/04/07 11:25:31;;;;;;;20.65;2.78;;;15.30;99.90;;;;;;5012211;28;20033;-70
2022/04/07 11:28:14;;;;;;;19.73;4.03;;;15.50;99.90;;;;;;5016526;28;20053;-71
2022/04/07 11:30:54;;;;;;;22.02;2.95;;;16.10;99.90;;;;;;5015529;28;20373;-73
2022/04/07 11:33:28;;;;;;;14.70;3.10;;;16.70;99.80;;;;;;5016948;28;20108;-69
2022/04/07 11:36:00;;;;;;;20.23;3.65;;;17.30;98.90;;;;;;5016878;28;20029;-73
2022/04/07 11:38:45;;;;;;;13.73;2.85;;;17.70;98.30;;;;;;5016956;28;20026;-70
2022/04/07 11:41:16;;;;;;;16.95;2.90;;;17.50;98.70;;;;;;5015462;28;20030;-75
2022/04/07 11:43:48;;;;;;;18.42;3.60;;;17.00;98.60;;;;;;5016705;28;20089;-72
2022/04/07 11:46:15;;;;;;;18.55;3.88;;;16.40;99.30;;;;;;5015839;28;20482;-71
2022/04/07 11:48:41;;;;;;;21.63;3.85;;;16.20;99.70;;;;;;5016698;28;20037;-70
2022/04/07 11:51:15;;;;;;;15.23;4.03;;;16.60;99.20;;;;;;5016667;28;20477;-72
2022/04/07 11:53:52;;;;;;;16.75;3.20;;;16.70;99.40;;;;;;5016617;28;20030;-70
2022/04/07 11:56:27;;;;;;;18.95;3.28;;;16.70;99.30;;;;;;5015225;28;20033;-72
2022/04/07 11:58:58;;;;;;;17.92;3.33;;;16.70;99.10;;;;;;5016310;28;20105;-74
2022/04/07 12:01:24;;;;;;;19.80;3.83;;;16.50;99.20;;;;;;5016361;28;20026;-73
2022/04/07 12:03:54;;;;;;;24.50;3.78;;;16.00;99.80;;;;;;5016314;28;20030;-73
2022/04/07 12:06:24;;;;;;;20.30;3.90;;;15.50;99.90;;;;;;5016031;28;20465;-74
2022/04/07 12:08:51;;;;;;;16.73;3.42;;;15.00;99.90;;;;;;5015859;28;20460;-70
2022/04/07 12:11:20;;;;;;;18.85;2.83;;;15.00;99.90;;;;;;4998678;28;20061;-71
2022/04/07 12:13:50;;;;;;;20.70;3.38;;;15.00;99.90;;;;;;5016160;28;20029;-72
2022/04/07 12:16:16;;;;;;;17.98;3.45;;;15.30;99.90;;;;;;5015860;28;20034;-73
2022/04/07 12:18:54;;;;;;;20.23;3.40;;;15.40;99.90;;;;;;5015989;28;20041;-73
2022/04/07 12:21:20;;;;;;;17.70;3.22;;;15.90;99.90;;;;;;5015046;28;20096;-72
2022/04/07 12:23:47;;;;;;;13.73;2.65;;;16.10;99.30;;;;;;5015610;28;20029;-75
2022/04/07 12:26:13;;;;;;;20.33;3.97;;;15.70;99.80;;;;;;5015938;28;20046;-76
2022/04/07 12:28:39;;;;;;;18.98;3.42;;;15.20;99.90;;;;;;5014688;28;20481;-68
2022/04/07 12:31:19;;;;;;;16.40;3.03;;;15.10;99.90;;;;;;5015668;28;20033;-71
2022/04/07 12:33:47;;;;;;;21.95;3.20;;;14.90;99.90;;;;;;5015790;28;20100;-69
2022/04/07 12:36:35;;;;;;;21.35;4.15;;;15.00;99.90;;;;;;5015230;28;20037;-74
2022/04/07 12:39:17;;;;;;;22.75;4.38;;;15.10;99.90;;;;;;5015678;28;20022;-73
2022/04/07 12:41:46;;;;;;;26.63;4.30;;;15.30;99.90;;;;;;5015401;28;20402;-72
2022/04/07 12:44:26;;;;;;;18.70;3.17;;;15.40;99.90;;;;;;5015472;28;20026;-74
2022/04/07 12:46:54;;;;;;;20.63;3.47;;;15.20;99.90;;;;;;5030812;28;20389;-73